Terminal Aerodrome Forecast
Issued by NWS

Home | Current Version | Previous Version | Text Only | Print | Product List | Glossary On
Versions: 1 2 3 4 5 6 7 8 9 10 11 12 13 14 15 16 17 18 19
000
FTUS43 KMPX 011730
TAFRNH
TAF
KRNH 011730Z 0118/0218 26007KT P6SM FEW080
     FM012300 22006KT P6SM VCSH SCT060 BKN080
      TEMPO 0202/0206 2SM TSRA OVC040CB
     FM020700 20005KT P6SM FEW020 SCT100
     FM021500 27008KT P6SM FEW250=

USA.gov is the U.S. government's official web portal to all federal, state and local government web resources and services.